sensor_id;sensor_type;location;lat;lon;timestamp;P1;durP1;ratioP1;P2;durP2;ratioP2
20861;SDS011;10591;52.532;13.348;2022-11-23T00:01:20;58.63;;;28.00;;
20861;SDS011;10591;52.532;13.348;2022-11-23T00:03:54;52.87;;;24.33;;
20861;SDS011;10591;52.532;13.348;2022-11-23T00:06:27;56.37;;;25.73;;
20861;SDS011;10591;52.532;13.348;2022-11-23T00:08:59;59.60;;;26.03;;
20861;SDS011;10591;52.532;13.348;2022-11-23T00:11:32;53.97;;;25.63;;
20861;SDS011;10591;52.532;13.348;2022-11-23T00:14:03;52.13;;;25.47;;
20861;SDS011;10591;52.532;13.348;2022-11-23T00:16:34;59.87;;;26.27;;
20861;SDS011;10591;52.532;13.348;2022-11-23T00:19:05;55.77;;;27.37;;
20861;SDS011;10591;52.532;13.348;2022-11-23T00:21:37;55.20;;;25.53;;
20861;SDS011;10591;52.532;13.348;2022-11-23T00:24:10;58.57;;;26.73;;
20861;SDS011;10591;52.532;13.348;2022-11-23T00:26:43;53.10;;;27.33;;
20861;SDS011;10591;52.532;13.348;2022-11-23T00:29:14;52.50;;;26.27;;
20861;SDS011;10591;52.532;13.348;2022-11-23T00:31:46;53.63;;;24.80;;
20861;SDS011;10591;52.532;13.348;2022-11-23T00:34:17;54.57;;;25.80;;
20861;SDS011;10591;52.532;13.348;2022-11-23T00:36:49;52.17;;;25.50;;
20861;SDS011;10591;52.532;13.348;2022-11-23T00:39:20;54.47;;;24.93;;
20861;SDS011;10591;52.532;13.348;2022-11-23T00:41:52;55.27;;;26.17;;
20861;SDS011;10591;52.532;13.348;2022-11-23T00:44:24;56.23;;;25.37;;
20861;SDS011;10591;52.532;13.348;2022-11-23T00:46:54;52.37;;;26.53;;
20861;SDS011;10591;52.532;13.348;2022-11-23T00:49:25;51.47;;;24.47;;
20861;SDS011;10591;52.532;13.348;2022-11-23T00:51:56;54.67;;;26.63;;
20861;SDS011;10591;52.532;13.348;2022-11-23T00:54:26;53.40;;;24.93;;
20861;SDS011;10591;52.532;13.348;2022-11-23T00:56:57;54.27;;;26.30;;
20861;SDS011;10591;52.532;13.348;2022-11-23T00:59:29;53.17;;;25.07;;
20861;SDS011;10591;52.532;13.348;2022-11-23T01:02:02;52.07;;;25.87;;
20861;SDS011;10591;52.532;13.348;2022-11-23T01:04:33;51.23;;;26.63;;
20861;SDS011;10591;52.532;13.348;2022-11-23T01:07:05;54.50;;;26.07;;
20861;SDS011;10591;52.532;13.348;2022-11-23T01:09:36;55.23;;;25.50;;
20861;SDS011;10591;52.532;13.348;2022-11-23T01:12:10;53.07;;;25.47;;
20861;SDS011;10591;52.532;13.348;2022-11-23T01:14:40;49.23;;;23.97;;
20861;SDS011;10591;52.532;13.348;2022-11-23T01:17:13;53.00;;;24.50;;
20861;SDS011;10591;52.532;13.348;2022-11-23T01:19:43;52.30;;;24.90;;
20861;SDS011;10591;52.532;13.348;2022-11-23T01:22:15;50.20;;;25.47;;
20861;SDS011;10591;52.532;13.348;2022-11-23T01:24:48;51.50;;;25.50;;
20861;SDS011;10591;52.532;13.348;2022-11-23T01:27:21;55.47;;;25.77;;
20861;SDS011;10591;52.532;13.348;2022-11-23T01:29:52;52.60;;;25.07;;
20861;SDS011;10591;52.532;13.348;2022-11-23T01:32:22;53.43;;;25.20;;
20861;SDS011;10591;52.532;13.348;2022-11-23T01:34:57;55.60;;;25.43;;
20861;SDS011;10591;52.532;13.348;2022-11-23T01:37:27;50.47;;;24.40;;
20861;SDS011;10591;52.532;13.348;2022-11-23T01:39:57;52.53;;;25.03;;
20861;SDS011;10591;52.532;13.348;2022-11-23T01:48:20;53.50;;;25.23;;
20861;SDS011;10591;52.532;13.348;2022-11-23T01:50:53;48.90;;;24.13;;
20861;SDS011;10591;52.532;13.348;2022-11-23T01:53:27;44.43;;;23.53;;
20861;SDS011;10591;52.532;13.348;2022-11-23T01:56:01;47.80;;;24.70;;
20861;SDS011;10591;52.532;13.348;2022-11-23T01:58:37;47.87;;;24.67;;
20861;SDS011;10591;52.532;13.348;2022-11-23T02:01:10;49.63;;;25.50;;
20861;SDS011;10591;52.532;13.348;2022-11-23T02:03:42;45.50;;;24.27;;
20861;SDS011;10591;52.532;13.348;2022-11-23T02:06:17;48.10;;;24.93;;
20861;SDS011;10591;52.532;13.348;2022-11-23T02:08:49;50.17;;;25.00;;
20861;SDS011;10591;52.532;13.348;2022-11-23T02:11:22;48.53;;;23.53;;
20861;SDS011;10591;52.532;13.348;2022-11-23T02:13:53;47.00;;;23.43;;
20861;SDS011;10591;52.532;13.348;2022-11-23T02:16:24;44.20;;;23.20;;
20861;SDS011;10591;52.532;13.348;2022-11-23T02:18:55;42.70;;;24.07;;
20861;SDS011;10591;52.532;13.348;2022-11-23T02:21:27;46.50;;;24.77;;
20861;SDS011;10591;52.532;13.348;2022-11-23T02:24:06;45.63;;;24.67;;
20861;SDS011;10591;52.532;13.348;2022-11-23T02:26:39;45.13;;;22.57;;
20861;SDS011;10591;52.532;13.348;2022-11-23T02:29:13;45.10;;;23.60;;
20861;SDS011;10591;52.532;13.348;2022-11-23T02:31:46;47.33;;;23.70;;
20861;SDS011;10591;52.532;13.348;2022-11-23T02:34:16;45.87;;;25.07;;
20861;SDS011;10591;52.532;13.348;2022-11-23T02:36:53;48.87;;;23.77;;
20861;SDS011;10591;52.532;13.348;2022-11-23T02:39:23;48.23;;;23.77;;
20861;SDS011;10591;52.532;13.348;2022-11-23T02:41:55;41.93;;;23.37;;
20861;SDS011;10591;52.532;13.348;2022-11-23T02:47:16;49.50;;;23.73;;
20861;SDS011;10591;52.532;13.348;2022-11-23T02:49:47;44.07;;;22.90;;
20861;SDS011;10591;52.532;13.348;2022-11-23T02:52:18;40.53;;;22.53;;
20861;SDS011;10591;52.532;13.348;2022-11-23T02:54:49;47.17;;;24.53;;
20861;SDS011;10591;52.532;13.348;2022-11-23T02:57:19;45.67;;;22.87;;
20861;SDS011;10591;52.532;13.348;2022-11-23T02:59:50;43.23;;;23.43;;
20861;SDS011;10591;52.532;13.348;2022-11-23T03:02:20;45.00;;;23.87;;
20861;SDS011;10591;52.532;13.348;2022-11-23T03:04:51;46.30;;;23.10;;
20861;SDS011;10591;52.532;13.348;2022-11-23T03:07:21;43.83;;;23.27;;
20861;SDS011;10591;52.532;13.348;2022-11-23T03:09:52;46.93;;;23.80;;
20861;SDS011;10591;52.532;13.348;2022-11-23T03:12:24;43.70;;;23.60;;
20861;SDS011;10591;52.532;13.348;2022-11-23T03:14:55;44.53;;;23.67;;
20861;SDS011;10591;52.532;13.348;2022-11-23T03:17:27;42.43;;;22.10;;
20861;SDS011;10591;52.532;13.348;2022-11-23T03:19:58;46.80;;;24.37;;
20861;SDS011;10591;52.532;13.348;2022-11-23T03:22:28;42.93;;;23.77;;
20861;SDS011;10591;52.532;13.348;2022-11-23T03:24:59;44.90;;;23.13;;
20861;SDS011;10591;52.532;13.348;2022-11-23T03:27:29;41.87;;;22.50;;
20861;SDS011;10591;52.532;13.348;2022-11-23T03:30:01;47.23;;;23.33;;
20861;SDS011;10591;52.532;13.348;2022-11-23T03:32:33;45.33;;;22.93;;
20861;SDS011;10591;52.532;13.348;2022-11-23T03:35:05;40.90;;;21.37;;
20861;SDS011;10591;52.532;13.348;2022-11-23T03:37:36;45.37;;;23.50;;
20861;SDS011;10591;52.532;13.348;2022-11-23T03:40:07;47.17;;;23.47;;
20861;SDS011;10591;52.532;13.348;2022-11-23T03:42:39;47.10;;;24.17;;
20861;SDS011;10591;52.532;13.348;2022-11-23T03:45:11;46.00;;;24.47;;
20861;SDS011;10591;52.532;13.348;2022-11-23T03:47:44;43.77;;;23.27;;
20861;SDS011;10591;52.532;13.348;2022-11-23T03:50:15;45.40;;;24.03;;
20861;SDS011;10591;52.532;13.348;2022-11-23T03:52:49;48.60;;;23.83;;
20861;SDS011;10591;52.532;13.348;2022-11-23T03:55:20;45.80;;;22.93;;
20861;SDS011;10591;52.532;13.348;2022-11-23T03:57:52;44.27;;;23.67;;
20861;SDS011;10591;52.532;13.348;2022-11-23T04:00:25;47.73;;;23.23;;
20861;SDS011;10591;52.532;13.348;2022-11-23T04:02:58;50.80;;;24.07;;
20861;SDS011;10591;52.532;13.348;2022-11-23T04:05:32;43.77;;;23.57;;
20861;SDS011;10591;52.532;13.348;2022-11-23T04:08:03;49.80;;;23.80;;
20861;SDS011;10591;52.532;13.348;2022-11-23T04:10:35;50.17;;;24.20;;
20861;SDS011;10591;52.532;13.348;2022-11-23T04:13:07;46.37;;;22.80;;
20861;SDS011;10591;52.532;13.348;2022-11-23T04:15:38;48.63;;;23.23;;
20861;SDS011;10591;52.532;13.348;2022-11-23T04:18:08;47.83;;;23.27;;
20861;SDS011;10591;52.532;13.348;2022-11-23T04:20:40;43.10;;;23.43;;
20861;SDS011;10591;52.532;13.348;2022-11-23T04:23:11;47.10;;;23.80;;
20861;SDS011;10591;52.532;13.348;2022-11-23T04:25:44;48.20;;;24.83;;
20861;SDS011;10591;52.532;13.348;2022-11-23T04:28:15;48.20;;;24.10;;
20861;SDS011;10591;52.532;13.348;2022-11-23T04:30:45;45.63;;;23.37;;
20861;SDS011;10591;52.532;13.348;2022-11-23T04:33:17;47.30;;;23.70;;
20861;SDS011;10591;52.532;13.348;2022-11-23T04:35:48;49.27;;;24.53;;
20861;SDS011;10591;52.532;13.348;2022-11-23T04:38:18;45.63;;;23.23;;
20861;SDS011;10591;52.532;13.348;2022-11-23T04:40:49;44.67;;;23.43;;
20861;SDS011;10591;52.532;13.348;2022-11-23T04:43:19;44.90;;;23.03;;
20861;SDS011;10591;52.532;13.348;2022-11-23T04:45:50;46.03;;;22.83;;
20861;SDS011;10591;52.532;13.348;2022-11-23T04:48:21;44.03;;;22.33;;
20861;SDS011;10591;52.532;13.348;2022-11-23T04:50:52;44.27;;;23.10;;
20861;SDS011;10591;52.532;13.348;2022-11-23T04:53:23;46.10;;;24.27;;
20861;SDS011;10591;52.532;13.348;2022-11-23T04:55:54;48.00;;;22.40;;
20861;SDS011;10591;52.532;13.348;2022-11-23T04:58:26;44.73;;;22.00;;
20861;SDS011;10591;52.532;13.348;2022-11-23T05:00:58;48.90;;;22.87;;
20861;SDS011;10591;52.532;13.348;2022-11-23T05:03:29;46.57;;;22.87;;
20861;SDS011;10591;52.532;13.348;2022-11-23T05:06:01;45.33;;;23.90;;
20861;SDS011;10591;52.532;13.348;2022-11-23T05:08:35;45.43;;;23.40;;
20861;SDS011;10591;52.532;13.348;2022-11-23T05:11:06;39.97;;;21.93;;
20861;SDS011;10591;52.532;13.348;2022-11-23T05:13:39;44.03;;;22.77;;
20861;SDS011;10591;52.532;13.348;2022-11-23T05:16:10;47.00;;;24.33;;
20861;SDS011;10591;52.532;13.348;2022-11-23T05:18:42;44.60;;;23.23;;
20861;SDS011;10591;52.532;13.348;2022-11-23T05:21:13;46.90;;;23.70;;
20861;SDS011;10591;52.532;13.348;2022-11-23T05:23:45;42.40;;;22.30;;
20861;SDS011;10591;52.532;13.348;2022-11-23T05:26:15;45.13;;;21.33;;
20861;SDS011;10591;52.532;13.348;2022-11-23T05:28:46;46.47;;;23.47;;
20861;SDS011;10591;52.532;13.348;2022-11-23T05:31:17;48.07;;;23.97;;
20861;SDS011;10591;52.532;13.348;2022-11-23T05:33:50;43.90;;;22.43;;
20861;SDS011;10591;52.532;13.348;2022-11-23T05:36:21;44.50;;;22.17;;
20861;SDS011;10591;52.532;13.348;2022-11-23T05:38:54;44.13;;;22.57;;
20861;SDS011;10591;52.532;13.348;2022-11-23T05:41:26;43.97;;;22.27;;
20861;SDS011;10591;52.532;13.348;2022-11-23T05:43:57;42.20;;;22.30;;
20861;SDS011;10591;52.532;13.348;2022-11-23T05:46:29;46.33;;;23.20;;
20861;SDS011;10591;52.532;13.348;2022-11-23T05:49:00;42.30;;;22.27;;
20861;SDS011;10591;52.532;13.348;2022-11-23T05:51:31;42.33;;;22.07;;
20861;SDS011;10591;52.532;13.348;2022-11-23T05:54:03;39.07;;;21.13;;
20861;SDS011;10591;52.532;13.348;2022-11-23T05:56:34;41.07;;;21.90;;
20861;SDS011;10591;52.532;13.348;2022-11-23T05:59:09;38.90;;;21.83;;
20861;SDS011;10591;52.532;13.348;2022-11-23T06:01:40;41.13;;;19.80;;
20861;SDS011;10591;52.532;13.348;2022-11-23T06:04:11;41.17;;;21.43;;
20861;SDS011;10591;52.532;13.348;2022-11-23T06:06:42;37.90;;;20.23;;
20861;SDS011;10591;52.532;13.348;2022-11-23T06:09:13;38.87;;;20.90;;
20861;SDS011;10591;52.532;13.348;2022-11-23T06:11:44;40.93;;;20.93;;
20861;SDS011;10591;52.532;13.348;2022-11-23T06:14:16;37.90;;;19.77;;
20861;SDS011;10591;52.532;13.348;2022-11-23T06:16:47;41.20;;;21.77;;
20861;SDS011;10591;52.532;13.348;2022-11-23T06:19:20;42.20;;;21.13;;
20861;SDS011;10591;52.532;13.348;2022-11-23T06:21:52;38.97;;;20.60;;
20861;SDS011;10591;52.532;13.348;2022-11-23T06:24:25;38.10;;;20.33;;
20861;SDS011;10591;52.532;13.348;2022-11-23T06:26:57;36.37;;;19.90;;
20861;SDS011;10591;52.532;13.348;2022-11-23T06:29:30;39.17;;;20.63;;
20861;SDS011;10591;52.532;13.348;2022-11-23T06:32:01;38.27;;;21.87;;
20861;SDS011;10591;52.532;13.348;2022-11-23T06:34:31;37.70;;;20.63;;
20861;SDS011;10591;52.532;13.348;2022-11-23T06:37:02;39.90;;;21.73;;
20861;SDS011;10591;52.532;13.348;2022-11-23T06:39:32;42.40;;;21.80;;
20861;SDS011;10591;52.532;13.348;2022-11-23T06:42:03;43.73;;;22.27;;
20861;SDS011;10591;52.532;13.348;2022-11-23T06:44:35;39.70;;;19.83;;
20861;SDS011;10591;52.532;13.348;2022-11-23T06:47:06;44.20;;;21.80;;
20861;SDS011;10591;52.532;13.348;2022-11-23T06:49:40;42.83;;;20.57;;
20861;SDS011;10591;52.532;13.348;2022-11-23T06:52:10;38.17;;;21.43;;
20861;SDS011;10591;52.532;13.348;2022-11-23T06:54:41;38.80;;;21.07;;
20861;SDS011;10591;52.532;13.348;2022-11-23T06:57:13;39.90;;;21.87;;
20861;SDS011;10591;52.532;13.348;2022-11-23T06:59:44;38.80;;;20.40;;
20861;SDS011;10591;52.532;13.348;2022-11-23T07:02:16;39.00;;;21.67;;
20861;SDS011;10591;52.532;13.348;2022-11-23T07:04:47;44.33;;;22.10;;
20861;SDS011;10591;52.532;13.348;2022-11-23T07:07:20;38.33;;;20.00;;
20861;SDS011;10591;52.532;13.348;2022-11-23T07:09:52;45.23;;;22.23;;
20861;SDS011;10591;52.532;13.348;2022-11-23T07:12:24;41.00;;;22.10;;
20861;SDS011;10591;52.532;13.348;2022-11-23T07:14:57;38.53;;;21.07;;
20861;SDS011;10591;52.532;13.348;2022-11-23T07:17:28;37.43;;;19.87;;
20861;SDS011;10591;52.532;13.348;2022-11-23T07:19:59;40.47;;;20.90;;
20861;SDS011;10591;52.532;13.348;2022-11-23T07:22:29;42.03;;;22.93;;
20861;SDS011;10591;52.532;13.348;2022-11-23T07:25:00;42.27;;;22.07;;
20861;SDS011;10591;52.532;13.348;2022-11-23T07:27:30;40.93;;;21.93;;
20861;SDS011;10591;52.532;13.348;2022-11-23T07:30:03;40.57;;;20.90;;
20861;SDS011;10591;52.532;13.348;2022-11-23T07:32:34;38.87;;;21.17;;
20861;SDS011;10591;52.532;13.348;2022-11-23T07:35:05;39.00;;;20.40;;
20861;SDS011;10591;52.532;13.348;2022-11-23T07:37:37;39.83;;;20.43;;
20861;SDS011;10591;52.532;13.348;2022-11-23T07:40:08;39.67;;;21.17;;
20861;SDS011;10591;52.532;13.348;2022-11-23T07:42:40;43.13;;;21.20;;
20861;SDS011;10591;52.532;13.348;2022-11-23T07:45:14;38.43;;;20.33;;
20861;SDS011;10591;52.532;13.348;2022-11-23T07:47:48;41.03;;;21.40;;
20861;SDS011;10591;52.532;13.348;2022-11-23T07:50:22;43.37;;;21.30;;
20861;SDS011;10591;52.532;13.348;2022-11-23T07:52:52;36.27;;;20.47;;
20861;SDS011;10591;52.532;13.348;2022-11-23T07:55:24;35.67;;;20.77;;
20861;SDS011;10591;52.532;13.348;2022-11-23T07:57:56;44.30;;;22.37;;
20861;SDS011;10591;52.532;13.348;2022-11-23T08:00:28;37.70;;;21.50;;
20861;SDS011;10591;52.532;13.348;2022-11-23T08:03:00;38.30;;;21.17;;
20861;SDS011;10591;52.532;13.348;2022-11-23T08:05:35;40.80;;;20.07;;
20861;SDS011;10591;52.532;13.348;2022-11-23T08:08:06;38.50;;;20.70;;
20861;SDS011;10591;52.532;13.348;2022-11-23T08:10:37;38.67;;;20.63;;
20861;SDS011;10591;52.532;13.348;2022-11-23T08:13:09;39.00;;;21.03;;
20861;SDS011;10591;52.532;13.348;2022-11-23T08:15:40;37.70;;;21.03;;
20861;SDS011;10591;52.532;13.348;2022-11-23T08:18:10;38.77;;;20.40;;
20861;SDS011;10591;52.532;13.348;2022-11-23T08:20:43;43.77;;;21.13;;
20861;SDS011;10591;52.532;13.348;2022-11-23T08:23:15;36.63;;;20.73;;
20861;SDS011;10591;52.532;13.348;2022-11-23T08:25:45;39.30;;;21.23;;
20861;SDS011;10591;52.532;13.348;2022-11-23T08:28:16;34.50;;;19.70;;
20861;SDS011;10591;52.532;13.348;2022-11-23T08:30:49;34.53;;;19.63;;
20861;SDS011;10591;52.532;13.348;2022-11-23T08:33:19;40.57;;;21.83;;
20861;SDS011;10591;52.532;13.348;2022-11-23T08:35:50;33.60;;;20.07;;
20861;SDS011;10591;52.532;13.348;2022-11-23T08:38:20;37.50;;;20.77;;
20861;SDS011;10591;52.532;13.348;2022-11-23T08:40:51;35.10;;;20.37;;
20861;SDS011;10591;52.532;13.348;2022-11-23T08:43:22;38.13;;;20.40;;
20861;SDS011;10591;52.532;13.348;2022-11-23T08:45:57;38.93;;;21.90;;
20861;SDS011;10591;52.532;13.348;2022-11-23T08:48:26;34.73;;;19.40;;
20861;SDS011;10591;52.532;13.348;2022-11-23T08:50:57;34.43;;;19.57;;
20861;SDS011;10591;52.532;13.348;2022-11-23T08:53:29;35.53;;;20.63;;
20861;SDS011;10591;52.532;13.348;2022-11-23T08:56:00;34.93;;;19.60;;
20861;SDS011;10591;52.532;13.348;2022-11-23T08:58:34;31.87;;;19.53;;
20861;SDS011;10591;52.532;13.348;2022-11-23T09:01:13;35.93;;;20.50;;
20861;SDS011;10591;52.532;13.348;2022-11-23T09:03:40;32.70;;;19.30;;
20861;SDS011;10591;52.532;13.348;2022-11-23T09:06:14;34.50;;;19.97;;
20861;SDS011;10591;52.532;13.348;2022-11-23T09:08:44;33.80;;;19.03;;
20861;SDS011;10591;52.532;13.348;2022-11-23T09:11:16;30.73;;;19.43;;
20861;SDS011;10591;52.532;13.348;2022-11-23T09:13:48;35.83;;;21.53;;
20861;SDS011;10591;52.532;13.348;2022-11-23T09:16:21;36.83;;;21.00;;
20861;SDS011;10591;52.532;13.348;2022-11-23T09:18:54;33.73;;;19.13;;
20861;SDS011;10591;52.532;13.348;2022-11-23T09:21:27;33.07;;;19.47;;
20861;SDS011;10591;52.532;13.348;2022-11-23T09:23:59;37.90;;;19.27;;
20861;SDS011;10591;52.532;13.348;2022-11-23T09:26:31;33.23;;;18.93;;
20861;SDS011;10591;52.532;13.348;2022-11-23T09:29:06;30.83;;;17.87;;
20861;SDS011;10591;52.532;13.348;2022-11-23T09:31:38;29.53;;;17.87;;
20861;SDS011;10591;52.532;13.348;2022-11-23T09:34:10;32.67;;;18.17;;
20861;SDS011;10591;52.532;13.348;2022-11-23T09:36:44;27.67;;;17.83;;
20861;SDS011;10591;52.532;13.348;2022-11-23T09:39:16;34.63;;;19.47;;
20861;SDS011;10591;52.532;13.348;2022-11-23T09:50:14;30.70;;;17.90;;
20861;SDS011;10591;52.532;13.348;2022-11-23T09:52:57;30.90;;;17.90;;
20861;SDS011;10591;52.532;13.348;2022-11-23T09:55:36;30.37;;;18.40;;
20861;SDS011;10591;52.532;13.348;2022-11-23T09:58:09;31.53;;;18.33;;
20861;SDS011;10591;52.532;13.348;2022-11-23T10:00:51;30.17;;;17.40;;
20861;SDS011;10591;52.532;13.348;2022-11-23T10:03:23;24.87;;;17.20;;
20861;SDS011;10591;52.532;13.348;2022-11-23T10:05:57;23.30;;;14.57;;
20861;SDS011;10591;52.532;13.348;2022-11-23T10:08:40;24.30;;;15.20;;
20861;SDS011;10591;52.532;13.348;2022-11-23T10:14:31;26.70;;;15.60;;
20861;SDS011;10591;52.532;13.348;2022-11-23T10:20:20;27.67;;;16.87;;
20861;SDS011;10591;52.532;13.348;2022-11-23T10:23:18;26.00;;;15.57;;
20861;SDS011;10591;52.532;13.348;2022-11-23T10:26:02;23.83;;;15.00;;
20861;SDS011;10591;52.532;13.348;2022-11-23T10:28:32;25.50;;;16.10;;
20861;SDS011;10591;52.532;13.348;2022-11-23T10:31:15;23.07;;;15.30;;
20861;SDS011;10591;52.532;13.348;2022-11-23T10:33:57;25.10;;;15.60;;
20861;SDS011;10591;52.532;13.348;2022-11-23T10:36:29;25.20;;;15.97;;
20861;SDS011;10591;52.532;13.348;2022-11-23T10:39:00;25.80;;;15.53;;
20861;SDS011;10591;52.532;13.348;2022-11-23T10:41:36;25.00;;;15.53;;
20861;SDS011;10591;52.532;13.348;2022-11-23T10:44:25;26.70;;;16.47;;
20861;SDS011;10591;52.532;13.348;2022-11-23T10:47:01;25.13;;;15.23;;
20861;SDS011;10591;52.532;13.348;2022-11-23T10:49:33;25.57;;;15.63;;
20861;SDS011;10591;52.532;13.348;2022-11-23T10:52:28;26.17;;;16.27;;
20861;SDS011;10591;52.532;13.348;2022-11-23T10:55:03;25.60;;;15.30;;
20861;SDS011;10591;52.532;13.348;2022-11-23T10:57:44;24.33;;;15.37;;
20861;SDS011;10591;52.532;13.348;2022-11-23T11:00:16;27.83;;;16.97;;
20861;SDS011;10591;52.532;13.348;2022-11-23T11:02:51;25.53;;;17.17;;
20861;SDS011;10591;52.532;13.348;2022-11-23T11:05:29;24.83;;;15.53;;
20861;SDS011;10591;52.532;13.348;2022-11-23T11:08:13;24.50;;;15.03;;
20861;SDS011;10591;52.532;13.348;2022-11-23T11:11:03;25.60;;;15.43;;
20861;SDS011;10591;52.532;13.348;2022-11-23T11:13:44;25.63;;;15.77;;
20861;SDS011;10591;52.532;13.348;2022-11-23T11:16:24;22.70;;;14.20;;
20861;SDS011;10591;52.532;13.348;2022-11-23T11:21:52;24.90;;;14.90;;
20861;SDS011;10591;52.532;13.348;2022-11-23T11:27:16;23.27;;;15.13;;
20861;SDS011;10591;52.532;13.348;2022-11-23T11:37:45;23.43;;;16.00;;
20861;SDS011;10591;52.532;13.348;2022-11-23T11:40:27;24.17;;;15.57;;
20861;SDS011;10591;52.532;13.348;2022-11-23T11:43:01;28.57;;;18.33;;
20861;SDS011;10591;52.532;13.348;2022-11-23T11:45:37;22.13;;;15.13;;
20861;SDS011;10591;52.532;13.348;2022-11-23T11:48:19;25.83;;;16.10;;
20861;SDS011;10591;52.532;13.348;2022-11-23T11:53:40;24.10;;;15.67;;
20861;SDS011;10591;52.532;13.348;2022-11-23T11:56:23;23.67;;;16.03;;
20861;SDS011;10591;52.532;13.348;2022-11-23T11:59:14;24.63;;;15.73;;
20861;SDS011;10591;52.532;13.348;2022-11-23T12:04:58;24.00;;;15.58;;
20861;SDS011;10591;52.532;13.348;2022-11-23T12:08:10;26.73;;;16.00;;
20861;SDS011;10591;52.532;13.348;2022-11-23T12:10:56;23.13;;;15.40;;
20861;SDS011;10591;52.532;13.348;2022-11-23T12:13:34;24.07;;;15.43;;
20861;SDS011;10591;52.532;13.348;2022-11-23T12:16:18;24.87;;;16.27;;
20861;SDS011;10591;52.532;13.348;2022-11-23T12:21:40;28.07;;;17.73;;
20861;SDS011;10591;52.532;13.348;2022-11-23T12:24:29;26.07;;;15.90;;
20861;SDS011;10591;52.532;13.348;2022-11-23T12:27:05;25.00;;;15.80;;
20861;SDS011;10591;52.532;13.348;2022-11-23T12:44:53;22.30;;;14.90;;
20861;SDS011;10591;52.532;13.348;2022-11-23T12:53:18;22.90;;;14.87;;
20861;SDS011;10591;52.532;13.348;2022-11-23T12:58:26;23.87;;;14.83;;
20861;SDS011;10591;52.532;13.348;2022-11-23T13:04:11;20.67;;;13.97;;
20861;SDS011;10591;52.532;13.348;2022-11-23T13:19:18;25.40;;;15.70;;
20861;SDS011;10591;52.532;13.348;2022-11-23T13:23:59;23.00;;;15.60;;
20861;SDS011;10591;52.532;13.348;2022-11-23T13:26:36;26.27;;;15.70;;
20861;SDS011;10591;52.532;13.348;2022-11-23T13:35:45;23.60;;;14.90;;
20861;SDS011;10591;52.532;13.348;2022-11-23T13:40:35;25.77;;;16.70;;
20861;SDS011;10591;52.532;13.348;2022-11-23T13:46:10;25.97;;;16.30;;
20861;SDS011;10591;52.532;13.348;2022-11-23T13:48:53;21.80;;;14.50;;
20861;SDS011;10591;52.532;13.348;2022-11-23T13:51:28;20.50;;;14.37;;
20861;SDS011;10591;52.532;13.348;2022-11-23T13:54:17;25.13;;;15.20;;
20861;SDS011;10591;52.532;13.348;2022-11-23T13:56:38;27.37;;;16.57;;
20861;SDS011;10591;52.532;13.348;2022-11-23T14:04:42;22.30;;;13.67;;
20861;SDS011;10591;52.532;13.348;2022-11-23T14:07:35;24.03;;;14.90;;
20861;SDS011;10591;52.532;13.348;2022-11-23T14:10:16;22.30;;;14.63;;
20861;SDS011;10591;52.532;13.348;2022-11-23T14:13:09;23.87;;;14.23;;
20861;SDS011;10591;52.532;13.348;2022-11-23T14:15:51;20.82;;;13.55;;
20861;SDS011;10591;52.532;13.348;2022-11-23T14:21:12;25.10;;;14.98;;
20861;SDS011;10591;52.532;13.348;2022-11-23T14:27:00;21.60;;;15.35;;
20861;SDS011;10591;52.532;13.348;2022-11-23T14:43:43;20.10;;;13.47;;
20861;SDS011;10591;52.532;13.348;2022-11-23T14:46:19;19.52;;;13.10;;
20861;SDS011;10591;52.532;13.348;2022-11-23T14:49:09;21.90;;;15.50;;
20861;SDS011;10591;52.532;13.348;2022-11-23T14:51:41;20.77;;;13.83;;
20861;SDS011;10591;52.532;13.348;2022-11-23T14:54:13;22.83;;;14.20;;
20861;SDS011;10591;52.532;13.348;2022-11-23T14:56:45;26.90;;;17.77;;
20861;SDS011;10591;52.532;13.348;2022-11-23T14:59:34;25.80;;;19.52;;
20861;SDS011;10591;52.532;13.348;2022-11-23T15:02:14;25.07;;;17.00;;
20861;SDS011;10591;52.532;13.348;2022-11-23T15:07:40;24.03;;;13.23;;
20861;SDS011;10591;52.532;13.348;2022-11-23T15:10:18;21.93;;;13.97;;
20861;SDS011;10591;52.532;13.348;2022-11-23T15:12:59;18.80;;;13.23;;
20861;SDS011;10591;52.532;13.348;2022-11-23T15:15:33;23.47;;;12.93;;
20861;SDS011;10591;52.532;13.348;2022-11-23T15:18:05;19.53;;;12.77;;
20861;SDS011;10591;52.532;13.348;2022-11-23T15:20:40;21.67;;;13.13;;
20861;SDS011;10591;52.532;13.348;2022-11-23T15:23:21;20.03;;;13.43;;
20861;SDS011;10591;52.532;13.348;2022-11-23T15:25:55;19.53;;;13.70;;
20861;SDS011;10591;52.532;13.348;2022-11-23T15:28:28;20.35;;;12.85;;
20861;SDS011;10591;52.532;13.348;2022-11-23T15:31:14;21.63;;;13.73;;
20861;SDS011;10591;52.532;13.348;2022-11-23T15:33:54;21.63;;;13.23;;
20861;SDS011;10591;52.532;13.348;2022-11-23T15:36:34;22.07;;;12.73;;
20861;SDS011;10591;52.532;13.348;2022-11-23T15:39:11;21.13;;;12.67;;
20861;SDS011;10591;52.532;13.348;2022-11-23T15:41:42;23.77;;;13.47;;
20861;SDS011;10591;52.532;13.348;2022-11-23T15:44:15;23.13;;;14.50;;
20861;SDS011;10591;52.532;13.348;2022-11-23T15:46:48;21.17;;;12.47;;
20861;SDS011;10591;52.532;13.348;2022-11-23T15:49:21;21.20;;;12.23;;
20861;SDS011;10591;52.532;13.348;2022-11-23T15:51:57;18.90;;;12.53;;
20861;SDS011;10591;52.532;13.348;2022-11-23T15:54:33;19.57;;;13.23;;
20861;SDS011;10591;52.532;13.348;2022-11-23T15:57:12;20.30;;;13.30;;
20861;SDS011;10591;52.532;13.348;2022-11-23T15:59:46;23.20;;;13.67;;
20861;SDS011;10591;52.532;13.348;2022-11-23T16:02:23;23.07;;;13.87;;
20861;SDS011;10591;52.532;13.348;2022-11-23T16:07:59;25.23;;;14.53;;
20861;SDS011;10591;52.532;13.348;2022-11-23T16:10:32;25.63;;;14.20;;
20861;SDS011;10591;52.532;13.348;2022-11-23T16:13:04;22.90;;;13.97;;
20861;SDS011;10591;52.532;13.348;2022-11-23T16:15:39;19.80;;;13.23;;
20861;SDS011;10591;52.532;13.348;2022-11-23T16:20:50;24.43;;;15.23;;
20861;SDS011;10591;52.532;13.348;2022-11-23T16:23:26;23.03;;;13.73;;
20861;SDS011;10591;52.532;13.348;2022-11-23T16:25:56;20.53;;;13.63;;
20861;SDS011;10591;52.532;13.348;2022-11-23T16:28:29;22.87;;;13.90;;
20861;SDS011;10591;52.532;13.348;2022-11-23T16:31:02;20.30;;;13.53;;
20861;SDS011;10591;52.532;13.348;2022-11-23T16:33:34;23.30;;;13.93;;
20861;SDS011;10591;52.532;13.348;2022-11-23T16:36:05;19.90;;;13.63;;
20861;SDS011;10591;52.532;13.348;2022-11-23T16:38:41;22.67;;;14.63;;
20861;SDS011;10591;52.532;13.348;2022-11-23T16:41:08;21.87;;;14.70;;
20861;SDS011;10591;52.532;13.348;2022-11-23T16:43:39;23.33;;;14.57;;
20861;SDS011;10591;52.532;13.348;2022-11-23T16:46:09;23.90;;;14.70;;
20861;SDS011;10591;52.532;13.348;2022-11-23T16:48:41;24.60;;;15.60;;
20861;SDS011;10591;52.532;13.348;2022-11-23T16:51:20;22.67;;;14.47;;
20861;SDS011;10591;52.532;13.348;2022-11-23T16:53:46;20.57;;;15.07;;
20861;SDS011;10591;52.532;13.348;2022-11-23T16:56:21;23.50;;;14.37;;
20861;SDS011;10591;52.532;13.348;2022-11-23T16:58:53;21.33;;;14.07;;